sensor_id;sensor_type;location;lat;lon;timestamp;P1;durP1;ratioP1;P2;durP2;ratioP2
18510;SDS011;9384;48.044;11.616;2022-10-13T00:01:08;22.20;;;9.67;;
18510;SDS011;9384;48.044;11.616;2022-10-13T00:03:36;56.40;;;9.53;;
18510;SDS011;9384;48.044;11.616;2022-10-13T00:06:04;57.00;;;10.00;;
18510;SDS011;9384;48.044;11.616;2022-10-13T00:08:32;18.77;;;8.93;;
18510;SDS011;9384;48.044;11.616;2022-10-13T00:11:00;11.33;;;9.13;;
18510;SDS011;9384;48.044;11.616;2022-10-13T00:13:33;30.83;;;9.97;;
18510;SDS011;9384;48.044;11.616;2022-10-13T00:16:02;14.87;;;9.50;;
18510;SDS011;9384;48.044;11.616;2022-10-13T00:18:29;13.47;;;8.47;;
18510;SDS011;9384;48.044;11.616;2022-10-13T00:20:55;18.83;;;7.97;;
18510;SDS011;9384;48.044;11.616;2022-10-13T00:23:22;13.50;;;8.30;;
18510;SDS011;9384;48.044;11.616;2022-10-13T00:25:49;12.40;;;8.40;;
18510;SDS011;9384;48.044;11.616;2022-10-13T00:28:17;18.83;;;10.03;;
18510;SDS011;9384;48.044;11.616;2022-10-13T00:30:45;19.80;;;10.23;;
18510;SDS011;9384;48.044;11.616;2022-10-13T00:33:14;20.80;;;9.83;;
18510;SDS011;9384;48.044;11.616;2022-10-13T00:35:41;17.33;;;10.20;;
18510;SDS011;9384;48.044;11.616;2022-10-13T00:38:09;20.60;;;10.90;;
18510;SDS011;9384;48.044;11.616;2022-10-13T00:40:41;19.43;;;11.20;;
18510;SDS011;9384;48.044;11.616;2022-10-13T00:43:12;13.50;;;9.30;;
18510;SDS011;9384;48.044;11.616;2022-10-13T00:45:42;18.80;;;10.07;;
18510;SDS011;9384;48.044;11.616;2022-10-13T00:48:09;18.90;;;10.47;;
18510;SDS011;9384;48.044;11.616;2022-10-13T00:50:38;19.40;;;10.50;;
18510;SDS011;9384;48.044;11.616;2022-10-13T00:53:07;24.97;;;12.23;;
18510;SDS011;9384;48.044;11.616;2022-10-13T00:55:36;22.33;;;10.77;;
18510;SDS011;9384;48.044;11.616;2022-10-13T00:58:05;17.80;;;9.87;;
18510;SDS011;9384;48.044;11.616;2022-10-13T01:00:35;22.27;;;10.73;;
18510;SDS011;9384;48.044;11.616;2022-10-13T01:03:02;24.27;;;11.23;;
18510;SDS011;9384;48.044;11.616;2022-10-13T01:05:29;20.93;;;11.50;;
18510;SDS011;9384;48.044;11.616;2022-10-13T01:07:57;23.80;;;11.97;;
18510;SDS011;9384;48.044;11.616;2022-10-13T01:10:28;28.97;;;11.37;;
18510;SDS011;9384;48.044;11.616;2022-10-13T01:13:02;24.07;;;11.27;;
18510;SDS011;9384;48.044;11.616;2022-10-13T01:15:38;21.53;;;10.40;;
18510;SDS011;9384;48.044;11.616;2022-10-13T01:18:10;20.80;;;10.73;;
18510;SDS011;9384;48.044;11.616;2022-10-13T01:26:58;22.30;;;10.77;;
18510;SDS011;9384;48.044;11.616;2022-10-13T01:35:43;24.07;;;10.53;;
18510;SDS011;9384;48.044;11.616;2022-10-13T01:38:34;22.53;;;11.30;;
18510;SDS011;9384;48.044;11.616;2022-10-13T01:41:10;19.63;;;10.60;;
18510;SDS011;9384;48.044;11.616;2022-10-13T01:43:43;18.60;;;9.90;;
18510;SDS011;9384;48.044;11.616;2022-10-13T01:46:16;17.87;;;9.87;;
18510;SDS011;9384;48.044;11.616;2022-10-13T01:48:47;14.10;;;9.03;;
18510;SDS011;9384;48.044;11.616;2022-10-13T01:51:17;14.00;;;8.27;;
18510;SDS011;9384;48.044;11.616;2022-10-13T01:53:46;10.77;;;7.77;;
18510;SDS011;9384;48.044;11.616;2022-10-13T01:56:14;17.67;;;8.73;;
18510;SDS011;9384;48.044;11.616;2022-10-13T01:58:41;13.63;;;7.83;;
18510;SDS011;9384;48.044;11.616;2022-10-13T02:01:12;14.93;;;8.17;;
18510;SDS011;9384;48.044;11.616;2022-10-13T02:03:50;14.50;;;7.80;;
18510;SDS011;9384;48.044;11.616;2022-10-13T02:06:23;8.87;;;6.93;;
18510;SDS011;9384;48.044;11.616;2022-10-13T02:08:58;13.60;;;7.67;;
18510;SDS011;9384;48.044;11.616;2022-10-13T02:11:30;10.77;;;6.43;;
18510;SDS011;9384;48.044;11.616;2022-10-13T02:13:58;10.77;;;6.83;;
18510;SDS011;9384;48.044;11.616;2022-10-13T02:16:30;15.73;;;7.17;;
18510;SDS011;9384;48.044;11.616;2022-10-13T02:19:00;9.33;;;6.73;;
18510;SDS011;9384;48.044;11.616;2022-10-13T02:21:29;10.40;;;6.93;;
18510;SDS011;9384;48.044;11.616;2022-10-13T02:23:57;10.23;;;6.67;;
18510;SDS011;9384;48.044;11.616;2022-10-13T02:26:24;12.50;;;7.27;;
18510;SDS011;9384;48.044;11.616;2022-10-13T02:28:51;12.53;;;7.47;;
18510;SDS011;9384;48.044;11.616;2022-10-13T02:31:18;9.83;;;6.47;;
18510;SDS011;9384;48.044;11.616;2022-10-13T02:33:46;11.07;;;6.43;;
18510;SDS011;9384;48.044;11.616;2022-10-13T02:36:13;12.13;;;7.47;;
18510;SDS011;9384;48.044;11.616;2022-10-13T02:38:40;13.13;;;7.27;;
18510;SDS011;9384;48.044;11.616;2022-10-13T02:41:07;14.83;;;7.50;;
18510;SDS011;9384;48.044;11.616;2022-10-13T02:43:34;11.70;;;7.33;;
18510;SDS011;9384;48.044;11.616;2022-10-13T02:46:02;10.40;;;7.30;;
18510;SDS011;9384;48.044;11.616;2022-10-13T02:48:29;13.37;;;7.03;;
18510;SDS011;9384;48.044;11.616;2022-10-13T02:50:57;11.43;;;6.63;;
18510;SDS011;9384;48.044;11.616;2022-10-13T02:53:24;8.97;;;6.20;;
18510;SDS011;9384;48.044;11.616;2022-10-13T02:55:51;12.80;;;6.27;;
18510;SDS011;9384;48.044;11.616;2022-10-13T02:58:17;11.27;;;6.27;;
18510;SDS011;9384;48.044;11.616;2022-10-13T03:00:44;8.70;;;6.20;;
18510;SDS011;9384;48.044;11.616;2022-10-13T03:03:11;7.33;;;6.10;;
18510;SDS011;9384;48.044;11.616;2022-10-13T03:05:38;9.07;;;6.20;;
18510;SDS011;9384;48.044;11.616;2022-10-13T03:08:06;14.87;;;6.63;;
18510;SDS011;9384;48.044;11.616;2022-10-13T03:10:33;12.73;;;7.00;;
18510;SDS011;9384;48.044;11.616;2022-10-13T03:12:59;7.57;;;5.20;;
18510;SDS011;9384;48.044;11.616;2022-10-13T03:15:26;6.50;;;5.40;;
18510;SDS011;9384;48.044;11.616;2022-10-13T03:17:53;9.27;;;6.30;;
18510;SDS011;9384;48.044;11.616;2022-10-13T03:20:20;10.67;;;6.30;;
18510;SDS011;9384;48.044;11.616;2022-10-13T03:22:46;9.20;;;5.47;;
18510;SDS011;9384;48.044;11.616;2022-10-13T03:25:15;6.23;;;4.90;;
18510;SDS011;9384;48.044;11.616;2022-10-13T03:27:41;5.73;;;5.17;;
18510;SDS011;9384;48.044;11.616;2022-10-13T03:30:09;6.50;;;5.80;;
18510;SDS011;9384;48.044;11.616;2022-10-13T03:32:36;8.00;;;5.33;;
18510;SDS011;9384;48.044;11.616;2022-10-13T03:35:03;7.80;;;4.63;;
18510;SDS011;9384;48.044;11.616;2022-10-13T03:37:31;6.27;;;5.27;;
18510;SDS011;9384;48.044;11.616;2022-10-13T03:39:57;5.80;;;4.63;;
18510;SDS011;9384;48.044;11.616;2022-10-13T03:42:25;5.27;;;4.77;;
18510;SDS011;9384;48.044;11.616;2022-10-13T03:44:52;8.83;;;5.40;;
18510;SDS011;9384;48.044;11.616;2022-10-13T03:47:19;6.57;;;5.40;;
18510;SDS011;9384;48.044;11.616;2022-10-13T03:49:46;8.13;;;5.47;;
18510;SDS011;9384;48.044;11.616;2022-10-13T03:52:13;12.43;;;5.83;;
18510;SDS011;9384;48.044;11.616;2022-10-13T03:54:39;13.93;;;5.60;;
18510;SDS011;9384;48.044;11.616;2022-10-13T03:57:06;8.43;;;5.67;;
18510;SDS011;9384;48.044;11.616;2022-10-13T03:59:34;7.40;;;5.37;;
18510;SDS011;9384;48.044;11.616;2022-10-13T04:02:01;8.57;;;6.13;;
18510;SDS011;9384;48.044;11.616;2022-10-13T04:04:28;8.93;;;5.90;;
18510;SDS011;9384;48.044;11.616;2022-10-13T04:06:54;8.50;;;6.10;;
18510;SDS011;9384;48.044;11.616;2022-10-13T04:09:21;22.07;;;7.07;;
18510;SDS011;9384;48.044;11.616;2022-10-13T04:11:48;20.97;;;7.73;;
18510;SDS011;9384;48.044;11.616;2022-10-13T04:14:16;20.33;;;8.83;;
18510;SDS011;9384;48.044;11.616;2022-10-13T04:16:44;25.53;;;11.33;;
18510;SDS011;9384;48.044;11.616;2022-10-13T04:19:13;28.60;;;12.00;;
18510;SDS011;9384;48.044;11.616;2022-10-13T04:21:40;24.70;;;12.17;;
18510;SDS011;9384;48.044;11.616;2022-10-13T04:24:09;42.20;;;22.43;;
18510;SDS011;9384;48.044;11.616;2022-10-13T04:26:37;40.70;;;19.07;;
18510;SDS011;9384;48.044;11.616;2022-10-13T04:29:05;29.57;;;13.40;;
18510;SDS011;9384;48.044;11.616;2022-10-13T04:31:33;18.47;;;10.07;;
18510;SDS011;9384;48.044;11.616;2022-10-13T04:34:02;23.97;;;9.97;;
18510;SDS011;9384;48.044;11.616;2022-10-13T04:36:29;26.27;;;9.80;;
18510;SDS011;9384;48.044;11.616;2022-10-13T04:38:56;37.17;;;8.80;;
18510;SDS011;9384;48.044;11.616;2022-10-13T04:41:23;20.93;;;9.20;;
18510;SDS011;9384;48.044;11.616;2022-10-13T04:43:50;29.13;;;10.47;;
18510;SDS011;9384;48.044;11.616;2022-10-13T04:46:19;25.67;;;9.63;;
18510;SDS011;9384;48.044;11.616;2022-10-13T04:48:47;29.80;;;11.97;;
18510;SDS011;9384;48.044;11.616;2022-10-13T04:51:16;21.17;;;10.10;;
18510;SDS011;9384;48.044;11.616;2022-10-13T04:53:45;27.77;;;11.10;;
18510;SDS011;9384;48.044;11.616;2022-10-13T04:56:13;24.97;;;11.83;;
18510;SDS011;9384;48.044;11.616;2022-10-13T04:58:41;34.83;;;12.77;;
18510;SDS011;9384;48.044;11.616;2022-10-13T05:01:11;32.30;;;13.30;;
18510;SDS011;9384;48.044;11.616;2022-10-13T05:03:39;31.77;;;11.67;;
18510;SDS011;9384;48.044;11.616;2022-10-13T05:06:12;31.10;;;13.17;;
18510;SDS011;9384;48.044;11.616;2022-10-13T05:08:40;27.37;;;13.00;;
18510;SDS011;9384;48.044;11.616;2022-10-13T05:11:07;31.33;;;14.53;;
18510;SDS011;9384;48.044;11.616;2022-10-13T05:13:34;36.00;;;14.33;;
18510;SDS011;9384;48.044;11.616;2022-10-13T05:16:04;39.03;;;15.20;;
18510;SDS011;9384;48.044;11.616;2022-10-13T05:18:31;37.10;;;14.23;;
18510;SDS011;9384;48.044;11.616;2022-10-13T05:21:04;42.47;;;17.77;;
18510;SDS011;9384;48.044;11.616;2022-10-13T05:23:32;39.80;;;15.60;;
18510;SDS011;9384;48.044;11.616;2022-10-13T05:26:02;43.97;;;16.80;;
18510;SDS011;9384;48.044;11.616;2022-10-13T05:28:30;36.70;;;15.17;;
18510;SDS011;9384;48.044;11.616;2022-10-13T05:30:57;37.03;;;15.47;;
18510;SDS011;9384;48.044;11.616;2022-10-13T05:33:33;31.83;;;14.67;;
18510;SDS011;9384;48.044;11.616;2022-10-13T05:36:01;36.83;;;17.77;;
18510;SDS011;9384;48.044;11.616;2022-10-13T05:38:29;42.87;;;18.33;;
18510;SDS011;9384;48.044;11.616;2022-10-13T05:41:00;40.90;;;17.53;;
18510;SDS011;9384;48.044;11.616;2022-10-13T05:43:29;43.37;;;17.67;;
18510;SDS011;9384;48.044;11.616;2022-10-13T05:45:56;34.73;;;16.67;;
18510;SDS011;9384;48.044;11.616;2022-10-13T05:48:23;38.30;;;16.47;;
18510;SDS011;9384;48.044;11.616;2022-10-13T05:50:50;39.10;;;16.17;;
18510;SDS011;9384;48.044;11.616;2022-10-13T05:53:17;40.77;;;16.87;;
18510;SDS011;9384;48.044;11.616;2022-10-13T05:55:44;36.67;;;15.90;;
18510;SDS011;9384;48.044;11.616;2022-10-13T05:58:12;39.33;;;17.27;;
18510;SDS011;9384;48.044;11.616;2022-10-13T06:00:39;42.97;;;16.00;;
18510;SDS011;9384;48.044;11.616;2022-10-13T06:03:08;33.30;;;15.47;;
18510;SDS011;9384;48.044;11.616;2022-10-13T06:05:37;39.53;;;16.23;;
18510;SDS011;9384;48.044;11.616;2022-10-13T06:08:05;35.00;;;15.03;;
18510;SDS011;9384;48.044;11.616;2022-10-13T06:10:31;34.27;;;16.93;;
18510;SDS011;9384;48.044;11.616;2022-10-13T06:12:58;43.07;;;23.13;;
18510;SDS011;9384;48.044;11.616;2022-10-13T06:15:26;35.30;;;19.03;;
18510;SDS011;9384;48.044;11.616;2022-10-13T06:17:53;36.00;;;17.53;;
18510;SDS011;9384;48.044;11.616;2022-10-13T06:20:20;31.57;;;16.97;;
18510;SDS011;9384;48.044;11.616;2022-10-13T06:22:47;35.90;;;16.07;;
18510;SDS011;9384;48.044;11.616;2022-10-13T06:25:15;35.63;;;16.07;;
18510;SDS011;9384;48.044;11.616;2022-10-13T06:27:42;30.90;;;16.53;;
18510;SDS011;9384;48.044;11.616;2022-10-13T06:30:09;39.00;;;16.50;;
18510;SDS011;9384;48.044;11.616;2022-10-13T06:32:37;38.57;;;17.47;;
18510;SDS011;9384;48.044;11.616;2022-10-13T06:35:04;43.93;;;21.97;;
18510;SDS011;9384;48.044;11.616;2022-10-13T06:37:32;36.20;;;18.60;;
18510;SDS011;9384;48.044;11.616;2022-10-13T06:39:58;38.37;;;18.23;;
18510;SDS011;9384;48.044;11.616;2022-10-13T06:42:25;41.00;;;17.87;;
18510;SDS011;9384;48.044;11.616;2022-10-13T06:44:55;32.73;;;17.10;;
18510;SDS011;9384;48.044;11.616;2022-10-13T06:47:21;33.93;;;17.30;;
18510;SDS011;9384;48.044;11.616;2022-10-13T06:49:50;37.07;;;17.37;;
18510;SDS011;9384;48.044;11.616;2022-10-13T06:52:17;34.13;;;17.67;;
18510;SDS011;9384;48.044;11.616;2022-10-13T06:54:43;30.50;;;15.57;;
18510;SDS011;9384;48.044;11.616;2022-10-13T06:57:10;34.47;;;17.47;;
18510;SDS011;9384;48.044;11.616;2022-10-13T06:59:37;37.13;;;17.03;;
18510;SDS011;9384;48.044;11.616;2022-10-13T07:02:04;33.13;;;16.13;;
18510;SDS011;9384;48.044;11.616;2022-10-13T07:04:30;29.77;;;15.67;;
18510;SDS011;9384;48.044;11.616;2022-10-13T07:06:58;32.90;;;16.47;;
18510;SDS011;9384;48.044;11.616;2022-10-13T07:09:25;33.50;;;16.40;;
18510;SDS011;9384;48.044;11.616;2022-10-13T07:11:52;30.27;;;16.53;;
18510;SDS011;9384;48.044;11.616;2022-10-13T07:14:19;30.70;;;16.97;;
18510;SDS011;9384;48.044;11.616;2022-10-13T07:16:46;33.63;;;16.83;;
18510;SDS011;9384;48.044;11.616;2022-10-13T07:19:13;31.67;;;16.27;;
18510;SDS011;9384;48.044;11.616;2022-10-13T07:21:39;32.37;;;16.57;;
18510;SDS011;9384;48.044;11.616;2022-10-13T07:24:08;28.10;;;16.00;;
18510;SDS011;9384;48.044;11.616;2022-10-13T07:26:36;32.90;;;14.77;;
18510;SDS011;9384;48.044;11.616;2022-10-13T07:29:03;29.57;;;14.87;;
18510;SDS011;9384;48.044;11.616;2022-10-13T07:31:29;31.97;;;15.50;;
18510;SDS011;9384;48.044;11.616;2022-10-13T07:33:57;30.37;;;14.73;;
18510;SDS011;9384;48.044;11.616;2022-10-13T07:36:24;33.87;;;14.63;;
18510;SDS011;9384;48.044;11.616;2022-10-13T07:38:51;35.07;;;15.83;;
18510;SDS011;9384;48.044;11.616;2022-10-13T07:41:20;39.87;;;15.17;;
18510;SDS011;9384;48.044;11.616;2022-10-13T07:43:47;35.93;;;15.00;;
18510;SDS011;9384;48.044;11.616;2022-10-13T07:46:13;38.50;;;15.77;;
18510;SDS011;9384;48.044;11.616;2022-10-13T07:48:40;34.57;;;16.23;;
18510;SDS011;9384;48.044;11.616;2022-10-13T07:51:08;31.47;;;13.83;;
18510;SDS011;9384;48.044;11.616;2022-10-13T07:53:36;34.70;;;16.88;;
18510;SDS011;9384;48.044;11.616;2022-10-13T07:56:04;33.70;;;17.40;;
18510;SDS011;9384;48.044;11.616;2022-10-13T07:58:34;27.27;;;14.20;;
18510;SDS011;9384;48.044;11.616;2022-10-13T08:01:03;29.70;;;13.83;;
18510;SDS011;9384;48.044;11.616;2022-10-13T08:03:30;27.70;;;14.07;;
18510;SDS011;9384;48.044;11.616;2022-10-13T08:05:57;23.90;;;13.47;;
18510;SDS011;9384;48.044;11.616;2022-10-13T08:08:25;24.57;;;13.13;;
18510;SDS011;9384;48.044;11.616;2022-10-13T08:10:52;28.58;;;15.00;;
18510;SDS011;9384;48.044;11.616;2022-10-13T08:13:19;29.63;;;16.05;;
18510;SDS011;9384;48.044;11.616;2022-10-13T08:15:47;29.73;;;15.32;;
18510;SDS011;9384;48.044;11.616;2022-10-13T08:18:14;27.30;;;16.08;;
18510;SDS011;9384;48.044;11.616;2022-10-13T08:20:41;23.40;;;12.40;;
18510;SDS011;9384;48.044;11.616;2022-10-13T08:23:10;21.77;;;12.00;;
18510;SDS011;9384;48.044;11.616;2022-10-13T08:25:37;22.40;;;13.27;;
18510;SDS011;9384;48.044;11.616;2022-10-13T08:28:04;24.65;;;13.90;;
18510;SDS011;9384;48.044;11.616;2022-10-13T08:30:31;21.27;;;14.10;;
18510;SDS011;9384;48.044;11.616;2022-10-13T08:33:00;17.47;;;11.13;;
18510;SDS011;9384;48.044;11.616;2022-10-13T08:35:27;17.07;;;10.50;;
18510;SDS011;9384;48.044;11.616;2022-10-13T08:37:54;14.13;;;9.87;;
18510;SDS011;9384;48.044;11.616;2022-10-13T08:40:21;15.90;;;9.40;;
18510;SDS011;9384;48.044;11.616;2022-10-13T08:42:48;17.00;;;9.73;;
18510;SDS011;9384;48.044;11.616;2022-10-13T08:45:17;12.57;;;9.30;;
18510;SDS011;9384;48.044;11.616;2022-10-13T08:47:48;19.23;;;9.93;;
18510;SDS011;9384;48.044;11.616;2022-10-13T08:50:21;22.80;;;10.63;;
18510;SDS011;9384;48.044;11.616;2022-10-13T08:52:51;16.83;;;9.03;;
18510;SDS011;9384;48.044;11.616;2022-10-13T08:55:21;12.27;;;8.50;;
18510;SDS011;9384;48.044;11.616;2022-10-13T08:57:49;15.87;;;8.67;;
18510;SDS011;9384;48.044;11.616;2022-10-13T09:00:17;15.63;;;9.07;;
18510;SDS011;9384;48.044;11.616;2022-10-13T09:02:44;13.50;;;8.80;;
18510;SDS011;9384;48.044;11.616;2022-10-13T09:05:12;14.20;;;8.10;;
18510;SDS011;9384;48.044;11.616;2022-10-13T09:07:41;13.63;;;8.60;;
18510;SDS011;9384;48.044;11.616;2022-10-13T09:10:10;11.27;;;8.23;;
18510;SDS011;9384;48.044;11.616;2022-10-13T09:12:39;13.47;;;9.30;;
18510;SDS011;9384;48.044;11.616;2022-10-13T09:15:07;15.17;;;9.40;;
18510;SDS011;9384;48.044;11.616;2022-10-13T09:17:35;13.03;;;7.67;;
18510;SDS011;9384;48.044;11.616;2022-10-13T09:20:03;11.43;;;8.00;;
18510;SDS011;9384;48.044;11.616;2022-10-13T09:22:31;13.87;;;9.23;;
18510;SDS011;9384;48.044;11.616;2022-10-13T09:25:03;12.63;;;8.20;;
18510;SDS011;9384;48.044;11.616;2022-10-13T09:27:40;17.93;;;9.03;;
18510;SDS011;9384;48.044;11.616;2022-10-13T09:30:22;12.00;;;8.37;;
18510;SDS011;9384;48.044;11.616;2022-10-13T09:32:50;16.47;;;9.13;;
18510;SDS011;9384;48.044;11.616;2022-10-13T09:35:19;13.77;;;8.40;;
18510;SDS011;9384;48.044;11.616;2022-10-13T09:37:47;15.47;;;8.53;;
18510;SDS011;9384;48.044;11.616;2022-10-13T09:40:28;15.98;;;9.45;;
18510;SDS011;9384;48.044;11.616;2022-10-13T09:42:56;15.07;;;9.43;;
18510;SDS011;9384;48.044;11.616;2022-10-13T09:45:24;15.50;;;9.63;;
18510;SDS011;9384;48.044;11.616;2022-10-13T09:47:55;14.17;;;8.50;;
18510;SDS011;9384;48.044;11.616;2022-10-13T09:50:23;19.13;;;9.73;;
18510;SDS011;9384;48.044;11.616;2022-10-13T09:52:51;14.10;;;8.73;;
18510;SDS011;9384;48.044;11.616;2022-10-13T09:55:25;22.43;;;8.67;;
18510;SDS011;9384;48.044;11.616;2022-10-13T09:57:54;15.27;;;7.90;;
18510;SDS011;9384;48.044;11.616;2022-10-13T10:00:23;14.97;;;7.53;;
18510;SDS011;9384;48.044;11.616;2022-10-13T10:02:52;13.20;;;6.93;;
18510;SDS011;9384;48.044;11.616;2022-10-13T10:05:22;13.60;;;8.10;;
18510;SDS011;9384;48.044;11.616;2022-10-13T10:07:49;13.02;;;8.57;;
18510;SDS011;9384;48.044;11.616;2022-10-13T10:10:21;18.23;;;7.47;;
18510;SDS011;9384;48.044;11.616;2022-10-13T10:12:51;11.97;;;7.20;;
18510;SDS011;9384;48.044;11.616;2022-10-13T10:15:22;11.73;;;6.67;;
18510;SDS011;9384;48.044;11.616;2022-10-13T10:17:51;10.10;;;6.70;;
18510;SDS011;9384;48.044;11.616;2022-10-13T10:20:30;9.37;;;7.10;;
18510;SDS011;9384;48.044;11.616;2022-10-13T10:23:00;11.00;;;7.33;;
18510;SDS011;9384;48.044;11.616;2022-10-13T10:25:28;10.77;;;7.50;;
18510;SDS011;9384;48.044;11.616;2022-10-13T10:28:04;12.40;;;6.50;;
18510;SDS011;9384;48.044;11.616;2022-10-13T10:30:39;11.00;;;6.53;;
18510;SDS011;9384;48.044;11.616;2022-10-13T10:33:09;13.17;;;7.07;;
18510;SDS011;9384;48.044;11.616;2022-10-13T10:35:39;10.13;;;6.30;;
18510;SDS011;9384;48.044;11.616;2022-10-13T10:38:11;11.27;;;6.88;;
18510;SDS011;9384;48.044;11.616;2022-10-13T10:40:48;13.50;;;6.63;;
18510;SDS011;9384;48.044;11.616;2022-10-13T10:45:58;12.50;;;7.03;;
18510;SDS011;9384;48.044;11.616;2022-10-13T10:48:27;10.20;;;6.20;;
18510;SDS011;9384;48.044;11.616;2022-10-13T10:50:56;10.03;;;6.60;;
18510;SDS011;9384;48.044;11.616;2022-10-13T10:53:27;11.90;;;7.53;;
18510;SDS011;9384;48.044;11.616;2022-10-13T10:55:57;11.27;;;6.63;;
18510;SDS011;9384;48.044;11.616;2022-10-13T10:58:30;11.60;;;6.37;;
18510;SDS011;9384;48.044;11.616;2022-10-13T11:01:04;11.40;;;6.23;;
18510;SDS011;9384;48.044;11.616;2022-10-13T11:03:35;10.10;;;6.67;;
18510;SDS011;9384;48.044;11.616;2022-10-13T11:06:17;8.97;;;6.10;;
18510;SDS011;9384;48.044;11.616;2022-10-13T11:08:47;12.57;;;6.47;;
18510;SDS011;9384;48.044;11.616;2022-10-13T11:11:34;11.47;;;6.23;;
18510;SDS011;9384;48.044;11.616;2022-10-13T11:14:17;11.55;;;7.03;;
18510;SDS011;9384;48.044;11.616;2022-10-13T11:17:06;13.77;;;6.13;;
18510;SDS011;9384;48.044;11.616;2022-10-13T11:19:36;9.53;;;5.60;;
18510;SDS011;9384;48.044;11.616;2022-10-13T11:24:52;8.47;;;6.13;;
18510;SDS011;9384;48.044;11.616;2022-10-13T11:27:23;10.83;;;5.53;;
18510;SDS011;9384;48.044;11.616;2022-10-13T11:29:52;14.03;;;6.40;;
18510;SDS011;9384;48.044;11.616;2022-10-13T11:35:16;8.37;;;5.97;;
18510;SDS011;9384;48.044;11.616;2022-10-13T11:37:46;7.80;;;5.83;;
18510;SDS011;9384;48.044;11.616;2022-10-13T11:40:22;10.97;;;5.53;;
18510;SDS011;9384;48.044;11.616;2022-10-13T11:43:02;12.77;;;6.53;;
18510;SDS011;9384;48.044;11.616;2022-10-13T11:45:45;7.70;;;5.53;;
18510;SDS011;9384;48.044;11.616;2022-10-13T11:51:31;11.60;;;5.73;;
18510;SDS011;9384;48.044;11.616;2022-10-13T11:54:12;13.10;;;6.33;;
18510;SDS011;9384;48.044;11.616;2022-10-13T11:56:47;13.07;;;5.90;;
18510;SDS011;9384;48.044;11.616;2022-10-13T11:59:21;7.03;;;5.27;;
18510;SDS011;9384;48.044;11.616;2022-10-13T12:01:54;8.43;;;5.77;;
18510;SDS011;9384;48.044;11.616;2022-10-13T12:04:23;10.97;;;6.33;;
18510;SDS011;9384;48.044;11.616;2022-10-13T12:06:54;9.27;;;6.30;;
18510;SDS011;9384;48.044;11.616;2022-10-13T12:09:25;10.73;;;6.18;;
18510;SDS011;9384;48.044;11.616;2022-10-13T12:11:57;12.57;;;6.20;;
18510;SDS011;9384;48.044;11.616;2022-10-13T12:14:28;9.68;;;6.50;;
18510;SDS011;9384;48.044;11.616;2022-10-13T12:16:57;11.15;;;6.82;;
18510;SDS011;9384;48.044;11.616;2022-10-13T12:19:26;9.13;;;5.93;;
18510;SDS011;9384;48.044;11.616;2022-10-13T12:21:56;11.03;;;6.03;;
18510;SDS011;9384;48.044;11.616;2022-10-13T12:24:25;17.53;;;6.83;;
18510;SDS011;9384;48.044;11.616;2022-10-13T12:26:52;15.13;;;5.97;;
18510;SDS011;9384;48.044;11.616;2022-10-13T12:29:21;11.83;;;6.00;;
18510;SDS011;9384;48.044;11.616;2022-10-13T12:31:50;14.60;;;7.07;;
18510;SDS011;9384;48.044;11.616;2022-10-13T12:34:22;8.90;;;6.00;;
18510;SDS011;9384;48.044;11.616;2022-10-13T12:36:53;9.57;;;6.47;;
18510;SDS011;9384;48.044;11.616;2022-10-13T12:39:24;9.33;;;5.77;;
18510;SDS011;9384;48.044;11.616;2022-10-13T12:41:53;15.10;;;6.23;;
18510;SDS011;9384;48.044;11.616;2022-10-13T12:44:22;13.30;;;6.33;;
18510;SDS011;9384;48.044;11.616;2022-10-13T12:46:52;9.47;;;6.07;;
18510;SDS011;9384;48.044;11.616;2022-10-13T12:49:23;10.53;;;6.67;;
18510;SDS011;9384;48.044;11.616;2022-10-13T12:51:52;10.90;;;5.93;;
18510;SDS011;9384;48.044;11.616;2022-10-13T12:54:26;12.37;;;5.73;;
18510;SDS011;9384;48.044;11.616;2022-10-13T12:56:56;15.57;;;7.50;;
18510;SDS011;9384;48.044;11.616;2022-10-13T12:59:26;7.57;;;5.93;;
18510;SDS011;9384;48.044;11.616;2022-10-13T13:01:55;11.97;;;6.50;;
18510;SDS011;9384;48.044;11.616;2022-10-13T13:04:30;11.60;;;5.60;;
18510;SDS011;9384;48.044;11.616;2022-10-13T13:07:19;10.00;;;5.93;;
18510;SDS011;9384;48.044;11.616;2022-10-13T13:10:07;13.60;;;5.83;;
18510;SDS011;9384;48.044;11.616;2022-10-13T13:12:40;8.63;;;5.73;;
18510;SDS011;9384;48.044;11.616;2022-10-13T13:15:18;9.33;;;6.03;;
18510;SDS011;9384;48.044;11.616;2022-10-13T13:21:00;8.10;;;6.17;;
18510;SDS011;9384;48.044;11.616;2022-10-13T13:23:29;14.60;;;6.23;;
18510;SDS011;9384;48.044;11.616;2022-10-13T13:26:00;13.10;;;6.10;;
18510;SDS011;9384;48.044;11.616;2022-10-13T13:28:28;13.48;;;6.65;;
18510;SDS011;9384;48.044;11.616;2022-10-13T13:30:57;8.50;;;5.90;;
18510;SDS011;9384;48.044;11.616;2022-10-13T13:33:24;15.97;;;5.60;;
18510;SDS011;9384;48.044;11.616;2022-10-13T13:35:51;11.03;;;6.30;;
18510;SDS011;9384;48.044;11.616;2022-10-13T13:38:19;11.20;;;5.73;;
18510;SDS011;9384;48.044;11.616;2022-10-13T13:40:46;15.67;;;6.07;;
18510;SDS011;9384;48.044;11.616;2022-10-13T13:43:14;9.40;;;6.60;;
18510;SDS011;9384;48.044;11.616;2022-10-13T13:45:41;6.47;;;5.70;;
18510;SDS011;9384;48.044;11.616;2022-10-13T13:48:08;9.88;;;6.18;;
18510;SDS011;9384;48.044;11.616;2022-10-13T13:50:37;14.63;;;6.37;;
18510;SDS011;9384;48.044;11.616;2022-10-13T13:53:04;9.60;;;6.32;;
18510;SDS011;9384;48.044;11.616;2022-10-13T13:55:31;10.00;;;5.80;;
18510;SDS011;9384;48.044;11.616;2022-10-13T13:57:58;13.20;;;6.77;;
18510;SDS011;9384;48.044;11.616;2022-10-13T14:00:26;16.30;;;6.17;;
18510;SDS011;9384;48.044;11.616;2022-10-13T14:02:53;15.07;;;5.73;;
18510;SDS011;9384;48.044;11.616;2022-10-13T14:05:21;14.57;;;6.10;;
18510;SDS011;9384;48.044;11.616;2022-10-13T14:07:48;11.83;;;6.00;;
18510;SDS011;9384;48.044;11.616;2022-10-13T14:10:19;12.57;;;6.13;;
18510;SDS011;9384;48.044;11.616;2022-10-13T14:12:46;12.90;;;5.80;;
18510;SDS011;9384;48.044;11.616;2022-10-13T14:15:13;11.27;;;6.57;;
18510;SDS011;9384;48.044;11.616;2022-10-13T14:17:41;11.17;;;5.73;;
18510;SDS011;9384;48.044;11.616;2022-10-13T14:20:08;7.60;;;5.83;;
18510;SDS011;9384;48.044;11.616;2022-10-13T14:22:36;7.95;;;5.85;;
18510;SDS011;9384;48.044;11.616;2022-10-13T14:25:03;10.70;;;6.22;;
18510;SDS011;9384;48.044;11.616;2022-10-13T14:27:32;11.43;;;5.90;;
18510;SDS011;9384;48.044;11.616;2022-10-13T14:29:59;8.30;;;5.80;;
18510;SDS011;9384;48.044;11.616;2022-10-13T14:32:26;11.27;;;5.90;;
18510;SDS011;9384;48.044;11.616;2022-10-13T14:34:54;13.13;;;6.60;;
18510;SDS011;9384;48.044;11.616;2022-10-13T14:37:21;8.13;;;5.90;;
18510;SDS011;9384;48.044;11.616;2022-10-13T14:39:48;11.50;;;5.93;;
18510;SDS011;9384;48.044;11.616;2022-10-13T14:42:15;12.35;;;6.38;;
18510;SDS011;9384;48.044;11.616;2022-10-13T14:44:42;9.43;;;6.37;;
18510;SDS011;9384;48.044;11.616;2022-10-13T14:47:09;9.17;;;5.73;;
18510;SDS011;9384;48.044;11.616;2022-10-13T14:49:36;13.20;;;6.13;;
18510;SDS011;9384;48.044;11.616;2022-10-13T14:52:04;11.33;;;5.90;;
18510;SDS011;9384;48.044;11.616;2022-10-13T14:54:31;10.97;;;6.63;;
18510;SDS011;9384;48.044;11.616;2022-10-13T14:56:58;12.97;;;6.60;;
18510;SDS011;9384;48.044;11.616;2022-10-13T14:59:29;17.10;;;6.83;;
18510;SDS011;9384;48.044;11.616;2022-10-13T15:01:56;14.10;;;7.43;;
18510;SDS011;9384;48.044;11.616;2022-10-13T15:04:22;8.13;;;6.30;;
18510;SDS011;9384;48.044;11.616;2022-10-13T15:06:49;14.33;;;5.93;;
18510;SDS011;9384;48.044;11.616;2022-10-13T15:09:18;10.55;;;5.88;;
18510;SDS011;9384;48.044;11.616;2022-10-13T15:11:44;9.07;;;6.20;;